Terminal Aerodrome Forecast
Issued by NWS Blacksburg, VA

Current Version | Previous Version | Graphics & Text | Print | Product List | Glossary On
Versions: 1 2 3 4 5 6 7 8 9 10 11 12 13 14 15 16 17 18 19 20 21 22 23 24 25 26
713
FTUS41 KRNK 261138
TAFBLF
TAF
KBLF 261138Z 2612/2712 26007KT P6SM -SHRA SCT050 OVC070
     FM261400 26008KT P6SM BKN060 OVC250
     FM261800 25009G16KT P6SM VCTS BKN040CB OVC080
     FM270200 25005KT 4SM BR SCT015 BKN050 OVC150=

USA.gov is the U.S. government's official web portal to all federal, state and local government web resources and services.